createdAt,value
2019-04-20T00:02:37.928Z,96614.00
2019-04-20T00:08:22.590Z,96609.00
2019-04-20T00:13:57.722Z,96598.00
2019-04-20T00:19:26.244Z,96603.00
2019-04-20T00:24:59.374Z,96599.00
2019-04-20T00:30:46.789Z,96602.00
2019-04-20T00:35:57.300Z,96601.00
2019-04-20T00:41:27.671Z,96592.00
2019-04-20T00:47:08.609Z,96591.00
2019-04-20T00:52:44.490Z,96590.00
2019-04-20T00:58:10.343Z,96591.00
2019-04-20T01:03:48.624Z,96587.00
2019-04-20T01:09:05.463Z,96581.00
2019-04-20T01:14:43.667Z,96592.00
2019-04-20T01:20:08.821Z,96587.00
2019-04-20T01:25:42.269Z,96584.00
2019-04-20T01:31:19.855Z,96585.00
2019-04-20T01:36:55.698Z,96575.00
2019-04-20T01:42:13.057Z,96575.00
2019-04-20T01:47:47.806Z,96583.00
2019-04-20T01:53:37.745Z,96585.00
2019-04-20T01:59:04.678Z,96587.00
2019-04-20T02:04:43.154Z,96590.00
2019-04-20T02:10:12.185Z,96589.00
2019-04-20T02:15:47.928Z,96593.00
2019-04-20T02:21:28.631Z,96585.00
2019-04-20T02:26:43.496Z,96597.00
2019-04-20T02:32:45.779Z,96593.00
2019-04-20T02:38:22.547Z,96592.00
2019-04-20T02:44:12.197Z,96591.00
2019-04-20T02:49:33.707Z,96597.00
2019-04-20T02:54:57.492Z,96598.00
2019-04-20T03:00:17.855Z,96589.00
2019-04-20T03:05:36.840Z,96586.00
2019-04-20T03:11:26.231Z,96586.00
2019-04-20T03:16:43.684Z,96590.00
2019-04-20T03:22:24.584Z,96584.00
2019-04-20T03:27:52.904Z,96585.00
2019-04-20T03:33:51.392Z,96593.00
2019-04-20T03:38:53.850Z,96592.00
2019-04-20T03:44:12.694Z,96593.00
2019-04-20T03:49:59.507Z,96591.00
2019-04-20T03:55:35.640Z,96601.00
2019-04-20T04:01:33.257Z,96601.00
2019-04-20T04:06:44.406Z,96599.00
2019-04-20T04:13:01.111Z,96604.00
2019-04-20T04:18:37.244Z,96612.00
2019-04-20T04:24:13.042Z,96609.00
2019-04-20T04:29:55.939Z,96608.00
2019-04-20T04:35:20.148Z,96613.00
2019-04-20T04:41:09.887Z,96612.00
2019-04-20T04:46:10.248Z,96619.00
2019-04-20T04:51:47.472Z,96619.00
2019-04-20T04:57:11.593Z,96623.00
2019-04-20T05:02:48.805Z,96619.00
2019-04-20T05:08:22.183Z,96639.00
2019-04-20T05:13:50.566Z,96633.00
2019-04-20T05:19:38.196Z,96639.00
2019-04-20T05:25:12.893Z,96623.00
2019-04-20T05:30:20.228Z,96632.00
2019-04-20T05:36:14.689Z,96629.00
2019-04-20T05:41:38.455Z,96637.00
2019-04-20T05:47:11.372Z,96625.00
2019-04-20T05:53:03.175Z,96628.00
2019-04-20T05:58:16.516Z,96627.00
2019-04-20T06:03:42.344Z,96629.00
2019-04-20T06:14:47.118Z,96643.00
2019-04-20T06:20:27.229Z,96645.00
2019-04-20T06:26:12.725Z,96659.00
2019-04-20T06:31:32.483Z,96662.00
2019-04-20T06:36:57.380Z,96664.00
2019-04-20T06:42:33.928Z,96665.00
2019-04-20T06:48:08.577Z,96665.00
2019-04-20T06:53:45.557Z,96674.00
2019-04-20T06:59:11.962Z,96656.00
2019-04-20T07:15:41.584Z,96663.00
2019-04-20T07:21:41.685Z,96664.00
2019-04-20T07:26:49.172Z,96680.00
2019-04-20T07:32:17.740Z,96674.00
2019-04-20T07:43:28.403Z,96681.00
2019-04-20T07:49:02.678Z,96678.00
2019-04-20T07:54:41.565Z,96673.00
2019-04-20T07:59:59.869Z,96670.00
2019-04-20T08:05:33.340Z,96677.00
2019-04-20T08:11:12.357Z,96671.00
2019-04-20T08:22:19.844Z,96670.00
2019-04-20T08:27:33.891Z,96673.00
2019-04-20T08:33:21.058Z,96663.00
2019-04-20T08:39:13.903Z,96676.00
2019-04-20T08:44:46.957Z,96664.00
2019-04-20T08:50:21.213Z,96674.00
2019-04-20T08:55:43.837Z,96667.00
2019-04-20T09:01:01.724Z,96659.00
2019-04-20T09:06:39.992Z,96666.00
2019-04-20T09:12:17.978Z,96656.00
2019-04-20T09:17:47.252Z,96661.00
2019-04-20T09:23:34.117Z,96659.00
2019-04-20T09:29:13.733Z,96647.00
2019-04-20T09:34:46.577Z,96642.00
2019-04-20T09:40:20.217Z,96641.00
2019-04-20T09:45:47.384Z,96642.00
2019-04-20T09:51:30.742Z,96633.00
2019-04-20T09:57:27.602Z,96622.00
2019-04-20T10:02:39.072Z,96621.00
2019-04-20T10:08:09.889Z,96621.00
2019-04-20T10:13:38.925Z,96618.00
2019-04-20T10:19:11.679Z,96615.00
2019-04-20T10:24:39.206Z,96608.00
2019-04-20T10:30:08.777Z,96611.00
2019-04-20T10:35:39.455Z,96613.00
2019-04-20T10:41:16.614Z,96603.00
2019-04-20T10:46:40.724Z,96597.00
2019-04-20T10:52:10.120Z,96598.00
2019-04-20T10:57:39.725Z,96587.00
2019-04-20T11:03:10.589Z,96600.00
2019-04-20T11:08:40.495Z,96596.00
2019-04-20T11:14:17.976Z,96591.00
2019-04-20T11:19:45.314Z,96593.00
2019-04-20T11:25:14.447Z,96576.00
2019-04-20T11:30:50.194Z,96576.00
2019-04-20T11:36:19.599Z,96578.00
2019-04-20T11:41:49.756Z,96570.00
2019-04-20T11:47:29.592Z,96572.00
2019-04-20T11:53:08.949Z,96569.00
2019-04-20T11:58:38.842Z,96567.00
2019-04-20T12:04:24.911Z,96569.00
2019-04-20T12:09:41.825Z,96556.00
2019-04-20T12:15:12.705Z,96561.00
2019-04-20T12:20:44.952Z,96552.00
2019-04-20T12:26:14.817Z,96559.00
2019-04-20T12:31:52.239Z,96555.00
2019-04-20T12:37:16.390Z,96538.00
2019-04-20T12:42:46.620Z,96529.00
2019-04-20T12:48:16.090Z,96535.00
2019-04-20T12:53:46.646Z,96527.00
2019-04-20T12:59:18.573Z,96529.00
2019-04-20T13:04:49.067Z,96524.00
2019-04-20T13:10:23.415Z,96533.00
2019-04-20T13:16:08.223Z,96509.00
2019-04-20T13:21:38.927Z,96511.00
2019-04-20T13:27:11.131Z,96516.00
2019-04-20T13:32:41.558Z,96510.00
2019-04-20T13:38:12.014Z,96505.00
2019-04-20T13:43:41.887Z,96500.00
2019-04-20T13:49:11.255Z,96492.00
2019-04-20T13:54:40.482Z,96483.00
2019-04-20T14:00:22.444Z,96471.00
2019-04-20T14:05:58.390Z,96475.00
2019-04-20T14:11:29.418Z,96461.00
2019-04-20T14:17:01.166Z,96449.00
2019-04-20T14:22:31.325Z,96400.00
2019-04-20T14:28:00.812Z,96374.00
2019-04-20T14:33:30.752Z,96377.00
2019-04-20T14:39:00.494Z,96370.00
2019-04-20T14:44:29.979Z,96354.00
2019-04-20T14:50:01.667Z,96316.00
2019-04-20T14:55:31.392Z,96360.00
2019-04-20T15:01:02.654Z,96390.00
2019-04-20T15:06:35.000Z,96416.00
2019-04-20T15:12:04.461Z,96427.00
2019-04-20T15:17:45.812Z,96408.00
2019-04-20T15:23:17.481Z,96412.00
2019-04-20T15:28:50.794Z,96389.00
2019-04-20T15:34:21.205Z,96385.00
2019-04-20T15:39:54.930Z,96378.00
2019-04-20T15:45:25.335Z,96401.00
2019-04-20T15:50:56.126Z,96399.00
2019-04-20T15:56:29.128Z,96388.00
2019-04-20T16:02:03.116Z,96390.00
2019-04-20T16:07:42.266Z,96391.00
2019-04-20T16:13:13.472Z,96391.00
2019-04-20T16:18:35.020Z,96386.00
2019-04-20T16:24:10.840Z,96370.00
2019-04-20T16:29:39.722Z,96376.00
2019-04-20T16:35:10.889Z,96372.00
2019-04-20T16:40:42.096Z,96365.00
2019-04-20T16:46:11.540Z,96363.00
2019-04-20T16:51:41.153Z,96366.00
2019-04-20T16:57:12.505Z,96362.00
2019-04-20T17:02:42.380Z,96361.00
2019-04-20T17:08:13.082Z,96360.00
2019-04-20T17:13:49.569Z,96356.00
2019-04-20T17:19:15.573Z,96355.00
2019-04-20T17:24:45.399Z,96359.00
2019-04-20T17:30:27.036Z,96353.00
2019-04-20T17:36:04.539Z,96354.00
2019-04-20T17:41:53.001Z,96348.00
2019-04-20T17:47:18.485Z,96355.00
2019-04-20T17:52:52.349Z,96355.00
2019-04-20T17:58:01.698Z,96357.00
2019-04-20T18:04:08.058Z,96360.00
2019-04-20T18:09:25.451Z,96364.00
2019-04-20T18:14:50.100Z,96367.00
2019-04-20T18:20:09.861Z,96367.00
2019-04-20T18:26:04.775Z,96355.00
2019-04-20T18:31:13.358Z,96358.00
2019-04-20T18:36:46.199Z,96358.00
2019-04-20T18:42:23.955Z,96364.00
2019-04-20T18:48:06.584Z,96359.00
2019-04-20T18:53:28.666Z,96365.00
2019-04-20T18:58:53.528Z,96363.00
2019-04-20T19:04:23.709Z,96361.00
2019-04-20T19:10:01.908Z,96374.00
2019-04-20T19:15:47.861Z,96369.00
2019-04-20T19:21:06.860Z,96370.00
2019-04-20T19:26:38.476Z,96372.00
2019-04-20T19:32:23.908Z,96363.00
2019-04-20T19:37:51.618Z,96370.00
2019-04-20T19:43:22.587Z,96371.00
2019-04-20T19:48:52.672Z,96364.00
2019-04-20T19:54:35.515Z,96372.00
2019-04-20T19:59:50.824Z,96372.00
2019-04-20T20:05:19.203Z,96361.00
2019-04-20T20:10:48.627Z,96367.00
2019-04-20T20:16:27.298Z,96367.00
2019-04-20T20:22:02.626Z,96373.00
2019-04-20T20:27:31.366Z,96370.00
2019-04-20T20:33:13.936Z,96365.00
2019-04-20T20:38:35.222Z,96366.00
2019-04-20T20:44:03.672Z,96366.00
2019-04-20T20:49:47.066Z,96361.00
2019-04-20T20:55:06.735Z,96362.00
2019-04-20T21:00:42.887Z,96368.00
2019-04-20T21:06:03.504Z,96367.00
2019-04-20T21:11:36.089Z,96362.00
2019-04-20T21:17:12.358Z,96361.00
2019-04-20T21:22:54.506Z,96355.00
2019-04-20T21:28:06.983Z,96352.00
2019-04-20T21:33:39.695Z,96360.00
2019-04-20T21:39:16.516Z,96363.00
2019-04-20T21:44:42.961Z,96369.00
2019-04-20T21:50:26.782Z,96362.00
2019-04-20T21:55:43.856Z,96355.00
2019-04-20T22:01:22.250Z,96350.00
2019-04-20T22:06:46.541Z,96349.00
2019-04-20T22:12:16.094Z,96353.00
2019-04-20T22:17:46.486Z,96344.00
2019-04-20T22:23:32.934Z,96341.00
2019-04-20T22:28:47.973Z,96340.00
2019-04-20T22:34:20.944Z,96335.00
2019-04-20T22:39:53.933Z,96326.00
2019-04-20T22:45:23.297Z,96313.00
2019-04-20T22:51:17.830Z,96308.00
2019-04-20T22:56:39.707Z,96308.00
2019-04-20T23:01:59.865Z,96306.00
2019-04-20T23:07:26.527Z,96298.00
2019-04-20T23:12:59.584Z,96298.00
2019-04-20T23:18:28.738Z,96278.00
2019-04-20T23:24:00.427Z,96275.00
2019-04-20T23:29:33.976Z,96276.00
2019-04-20T23:35:04.930Z,96267.00
2019-04-20T23:40:32.058Z,96269.00
2019-04-20T23:46:24.045Z,96266.00
2019-04-20T23:52:09.741Z,96257.00
2019-04-20T23:57:21.849Z,96241.00
